If you wish to contribute or participate in the discussions about articles you are invited to join SKYbrary as a registered user

 Actions

Rasht Airport

From SKYbrary Wiki

OIGG
Airport
ICAO: OIGG – IATA: RAS
Summary
Name Rasht Airport
Region Middle East
Territory Iran IR.gif
Location Rasht, Gilan Province
Serving Rasht
Elevation -12.192 m
-40 ft-12.192 m
Coordinates 37° 19' 17.31" N, 49° 36' 58.74" E
Runways
Designator Length Width Surface ROPS
9/27 2917 m9,570.21 ft
45 m147.638 ft
ASP /


METAR
Observation OIGG 190800Z 36008KT 4000 -RA BKN006 FEW015CB OVC070 11/11 Q1017
Station Rasht
Date/Time 19 April 2019 08:00:00
Wind direction 360°
Wind speed 08 kts
Lowest cloud amount broken clouds
Temperature 11°C
Dew point 11°C
Humidity 100%
QNH 1017 hPa
Weather condition n/a

Airport serving the city of Rasht in northern Iran.

Climatology

Mediterranean climate (Köppen climate classification Csa).

Maps

Terrain

Loading map...

Airport Layout

Loading map...


Accidents & Serious Incidents at or in vicinity of OIGG

None on SKYbrary